Time;durP1;ratioP1;P1;durP2;ratioP2;P2;SDS_P1;SDS_P2;PMS_P1;PMS_P2;Temp;Humidity;BMP_temperature;BMP_pressure;BME280_temperature;BME280_humidity;BME280_pressure;Samples;Min_cycle;Max_cycle;Signal;HPM_P1;HPM_P2
2023/07/12 00:01:01;;;;;;;3.83;2.40;;;23.50;65.80;23.80;99937.00;;;;4971264;28;104764;-66
2023/07/12 00:03:27;;;;;;;3.72;2.90;;;23.50;66.80;23.80;99925.00;;;;4971401;28;83357;-66
2023/07/12 00:05:54;;;;;;;2.50;2.30;;;24.10;66.50;23.70;99918.00;;;;4969377;28;82504;-65
2023/07/12 00:08:27;;;;;;;6.78;3.17;;;23.50;66.20;23.70;99914.00;;;;4969546;28;115117;-65
2023/07/12 00:10:56;;;;;;;3.30;3.00;;;23.50;66.50;23.80;99906.00;;;;4974608;28;84633;-67
2023/07/12 00:13:25;;;;;;;4.47;2.30;;;23.50;66.70;23.70;99898.00;;;;4969145;28;92440;-67
2023/07/12 00:15:53;;;;;;;3.90;2.13;;;23.50;66.80;23.70;99888.00;;;;4969035;28;82848;-67
2023/07/12 00:18:23;;;;;;;4.45;2.50;;;23.50;66.90;23.80;99887.00;;;;4971105;28;112638;-67
2023/07/12 00:20:51;;;;;;;3.67;2.97;;;23.50;66.80;23.80;99890.00;;;;4970396;28;96012;-68
2023/07/12 00:23:18;;;;;;;5.68;2.92;;;23.60;66.90;23.80;99881.00;;;;4975906;28;84753;-67
2023/07/12 00:25:46;;;;;;;4.22;3.10;;;23.60;67.00;23.80;99873.00;;;;4969028;28;92889;-67
2023/07/12 00:28:21;;;;;;;3.72;2.15;;;23.60;67.00;23.80;99862.00;;;;4968599;28;92456;-66
2023/07/12 00:30:48;;;;;;;4.30;2.78;;;23.60;67.00;23.80;99849.00;;;;4972368;28;82738;-66
2023/07/12 00:33:14;;;;;;;4.53;2.72;;;23.60;66.90;23.90;99846.00;;;;4970085;28;95747;-66
2023/07/12 00:35:42;;;;;;;4.88;2.72;;;23.70;67.00;23.90;99835.00;;;;4969503;28;107505;-67
2023/07/12 00:38:21;;;;;;;2.80;2.10;;;23.60;67.30;23.80;99822.00;;;;4968979;28;98593;-66
2023/07/12 00:40:56;;;;;;;3.95;2.85;;;23.60;67.40;23.80;99836.00;;;;4968950;28;103107;-66
2023/07/12 00:43:54;;;;;;;4.15;2.67;;;23.60;67.30;23.80;99817.00;;;;4969860;28;82944;-66
2023/07/12 00:46:38;;;;;;;5.07;2.75;;;23.60;67.20;23.80;99824.00;;;;4974309;28;82722;-65
2023/07/12 00:49:04;;;;;;;5.78;2.85;;;23.60;67.30;23.80;99806.00;;;;4974495;28;82823;-65
2023/07/12 00:51:57;;;;;;;4.82;2.55;;;23.60;67.30;23.70;99799.00;;;;4971429;28;82918;-66
2023/07/12 00:54:45;;;;;;;3.55;2.15;;;23.60;67.40;23.80;99796.00;;;;4970051;28;82816;-66
2023/07/12 00:57:11;;;;;;;7.45;2.63;;;23.60;67.50;23.80;99794.00;;;;4971664;28;110111;-66
2023/07/12 00:59:36;;;;;;;3.70;2.72;;;23.50;67.50;23.70;99789.00;;;;4967608;28;112568;-66
2023/07/12 01:02:03;;;;;;;3.75;2.63;;;23.50;67.60;23.70;99782.00;;;;4970297;28;112641;-64
2023/07/12 01:04:36;;;;;;;7.68;2.58;;;23.50;67.80;23.70;99774.00;;;;4971552;28;82841;-65
2023/07/12 01:07:03;;;;;;;3.05;2.28;;;23.50;68.00;23.70;99765.00;;;;4973564;28;82930;-65
2023/07/12 01:09:28;;;;;;;3.63;2.35;;;23.50;68.40;23.70;99764.00;;;;4970201;28;110685;-65
2023/07/12 01:11:54;;;;;;;3.63;2.10;;;23.50;68.70;23.60;99753.00;;;;4968045;28;112965;-65
2023/07/12 01:14:20;;;;;;;5.35;2.83;;;23.40;68.70;23.60;99754.00;;;;4974093;28;110504;-65
2023/07/12 01:17:03;;;;;;;3.83;2.67;;;23.40;68.80;23.60;99746.00;;;;4969218;28;108957;-66
2023/07/12 01:19:29;;;;;;;5.50;3.17;;;23.40;68.80;23.60;99742.00;;;;4974027;28;83420;-65
2023/07/12 01:21:56;;;;;;;4.00;2.65;;;23.40;69.20;23.60;99734.00;;;;4966430;28;82838;-67
2023/07/12 01:24:24;;;;;;;4.32;2.88;;;23.40;69.20;23.60;99729.00;;;;4970366;28;84431;-66
2023/07/12 01:26:57;;;;;;;3.08;2.38;;;23.30;69.30;23.60;99726.00;;;;4969388;28;100564;-65
2023/07/12 01:29:23;;;;;;;4.38;2.88;;;23.30;69.20;23.60;99732.00;;;;4968300;28;83229;-66
2023/07/12 01:31:49;;;;;;;3.38;2.85;;;23.30;69.30;23.60;99726.00;;;;4969701;28;90889;-65
2023/07/12 01:34:17;;;;;;;5.70;3.67;;;23.30;69.30;23.60;99721.00;;;;4971246;28;111033;-65
2023/07/12 01:36:43;;;;;;;4.97;3.33;;;23.30;69.40;23.60;99713.00;;;;4969288;28;98784;-65
2023/07/12 01:39:09;;;;;;;2.70;2.17;;;23.40;69.50;23.60;99702.00;;;;4970105;28;83667;-65
2023/07/12 01:41:35;;;;;;;5.93;2.95;;;23.40;69.40;23.60;99698.00;;;;4970319;28;83683;-66
2023/07/12 01:44:01;;;;;;;4.68;2.92;;;23.40;69.30;23.60;99699.00;;;;4972980;28;83258;-66
2023/07/12 01:46:27;;;;;;;5.95;2.60;;;23.40;69.30;23.70;99704.00;;;;4971634;28;100480;-65
2023/07/12 01:48:53;;;;;;;3.85;2.83;;;23.50;69.40;23.70;99698.00;;;;4970001;28;83895;-65
2023/07/12 01:51:20;;;;;;;4.10;2.58;;;23.50;69.40;23.70;99707.00;;;;4971847;28;114295;-66
2023/07/12 01:53:47;;;;;;;3.67;2.22;;;23.50;69.40;23.80;99722.00;;;;4970938;28;82831;-65
2023/07/12 01:56:14;;;;;;;2.78;2.40;;;23.50;69.30;23.80;99732.00;;;;4974897;28;82800;-66
2023/07/12 01:58:40;;;;;;;4.60;3.15;;;23.60;69.40;23.80;99732.00;;;;4973976;28;83959;-65
2023/07/12 02:01:06;;;;;;;5.43;3.53;;;23.60;69.50;23.80;99737.00;;;;4970612;28;106067;-65
2023/07/12 02:03:32;;;;;;;4.50;2.90;;;23.60;69.60;23.80;99730.00;;;;4971552;28;82725;-66
2023/07/12 02:05:58;;;;;;;5.43;2.90;;;23.60;69.70;23.80;99736.00;;;;4971235;28;106808;-66
2023/07/12 02:08:24;;;;;;;4.13;2.72;;;23.60;70.10;23.80;99734.00;;;;4973445;28;85482;-67
2023/07/12 02:10:51;;;;;;;3.67;3.15;;;23.60;70.50;23.90;99730.00;;;;4976347;28;83164;-67
2023/07/12 02:13:17;;;;;;;2.95;2.50;;;23.60;70.50;23.90;99733.00;;;;4974657;28;98529;-67
2023/07/12 02:15:43;;;;;;;6.93;3.15;;;23.70;70.50;24.00;99735.00;;;;4972458;28;82865;-65
2023/07/12 02:18:11;;;;;;;6.63;3.33;;;23.70;70.50;24.20;99727.00;;;;4973028;28;101358;-66
2023/07/12 02:20:37;;;;;;;4.38;3.10;;;23.90;70.30;24.40;99732.00;;;;4974101;28;85947;-67
2023/07/12 02:23:02;;;;;;;5.32;2.65;;;24.00;69.80;24.60;99736.00;;;;4972729;28;82719;-66
2023/07/12 02:25:28;;;;;;;5.70;3.22;;;24.20;69.40;24.70;99735.00;;;;4970089;28;108322;-66
2023/07/12 02:27:54;;;;;;;4.20;2.88;;;24.40;68.90;24.90;99747.00;;;;4970890;28;84215;-66
2023/07/12 02:30:26;;;;;;;8.18;3.72;;;24.60;68.20;25.10;99742.00;;;;4973641;28;112905;-66
2023/07/12 02:32:53;;;;;;;4.45;3.67;;;24.70;67.70;25.20;99745.00;;;;4971546;28;82727;-67
2023/07/12 02:35:22;;;;;;;6.38;3.60;;;24.90;67.10;25.30;99744.00;;;;4971493;28;82846;-66
2023/07/12 02:37:48;;;;;;;3.92;3.28;;;25.00;66.80;25.40;99746.00;;;;4970990;28;84828;-67
2023/07/12 02:40:15;;;;;;;5.97;3.13;;;25.10;66.30;25.50;99744.00;;;;4971749;28;84527;-66
2023/07/12 02:42:41;;;;;;;4.35;2.90;;;25.20;65.90;25.60;99753.00;;;;4976671;28;82786;-68
2023/07/12 02:45:08;;;;;;;4.80;2.97;;;25.30;65.50;25.70;99752.00;;;;4974806;28;107833;-66
2023/07/12 02:47:34;;;;;;;3.58;3.03;;;25.40;65.10;25.80;99747.00;;;;4973601;28;82903;-67
2023/07/12 02:49:59;;;;;;;3.47;2.88;;;25.50;64.80;26.00;99748.00;;;;4975585;28;82979;-66
2023/07/12 02:52:25;;;;;;;4.80;3.08;;;25.60;64.40;26.00;99750.00;;;;4973005;28;105320;-67
2023/07/12 02:54:51;;;;;;;4.57;3.13;;;25.70;64.10;26.10;99752.00;;;;4971153;28;108733;-67
2023/07/12 02:57:17;;;;;;;5.10;3.53;;;25.80;64.00;26.10;99749.00;;;;4969835;28;110916;-66
2023/07/12 02:59:43;;;;;;;5.55;2.67;;;25.80;63.60;26.10;99752.00;;;;4972567;28;113646;-65
2023/07/12 03:02:12;;;;;;;6.10;2.80;;;25.80;63.50;26.10;99749.00;;;;4967395;28;109955;-66
2023/07/12 03:04:37;;;;;;;4.93;3.13;;;25.90;63.40;26.20;99756.00;;;;4969089;28;83569;-66
2023/07/12 03:07:03;;;;;;;5.20;2.67;;;25.90;63.20;26.20;99766.00;;;;4974869;28;82908;-67
2023/07/12 03:09:29;;;;;;;4.82;2.90;;;25.90;63.10;26.20;99757.00;;;;4972676;28;101672;-67
2023/07/12 03:11:55;;;;;;;4.68;2.83;;;25.90;63.00;26.20;99755.00;;;;4971065;28;109299;-68
2023/07/12 03:14:22;;;;;;;3.17;2.20;;;25.90;62.90;26.20;99752.00;;;;4974691;28;82641;-66
2023/07/12 03:16:48;;;;;;;3.75;2.47;;;25.90;63.70;26.20;99762.00;;;;4967857;28;87461;-67
2023/07/12 03:19:15;;;;;;;7.35;3.10;;;25.90;62.80;26.20;99770.00;;;;4970478;28;96522;-66
2023/07/12 03:21:41;;;;;;;5.65;3.33;;;25.90;62.90;26.20;99748.00;;;;4971770;28;82599;-66
2023/07/12 03:24:08;;;;;;;4.85;3.42;;;25.90;62.80;26.20;99753.00;;;;4971095;28;82800;-67
2023/07/12 03:26:35;;;;;;;5.88;3.05;;;25.90;62.70;26.20;99743.00;;;;4971207;28;84199;-66
2023/07/12 03:29:01;;;;;;;3.90;2.58;;;26.00;62.80;26.20;99745.00;;;;4972430;28;103787;-68
2023/07/12 03:31:31;;;;;;;3.53;2.55;;;26.00;62.70;26.20;99750.00;;;;4970444;28;82610;-67
2023/07/12 03:33:58;;;;;;;4.90;2.63;;;26.00;62.80;26.20;99755.00;;;;4974657;28;82996;-66
2023/07/12 03:36:28;;;;;;;5.45;3.25;;;25.90;62.80;26.20;99756.00;;;;4969632;28;103086;-67
2023/07/12 03:38:55;;;;;;;1.98;1.85;;;26.00;62.90;26.20;99753.00;;;;4972213;28;82643;-66
2023/07/12 03:41:21;;;;;;;2.63;2.25;;;25.90;62.80;26.20;99756.00;;;;4975952;28;84725;-67
2023/07/12 03:43:47;;;;;;;5.78;2.42;;;25.90;62.70;26.30;99759.00;;;;4973065;28;82131;-66
2023/07/12 03:46:14;;;;;;;2.20;1.83;;;26.00;62.70;26.30;99759.00;;;;4970591;28;112149;-66
2023/07/12 03:48:40;;;;;;;4.05;2.00;;;26.00;62.50;26.30;99769.00;;;;4969425;28;83499;-65
2023/07/12 03:51:06;;;;;;;3.88;1.90;;;26.00;62.50;26.30;99769.00;;;;4971107;28;110610;-65
2023/07/12 03:53:32;;;;;;;8.63;2.10;;;26.00;62.30;26.30;99767.00;;;;4973112;28;109216;-67
2023/07/12 03:56:03;;;;;;;1.58;1.15;;;26.00;62.10;26.30;99772.00;;;;4970261;28;105070;-66
2023/07/12 03:58:36;;;;;;;2.25;1.85;;;26.10;62.20;26.30;99772.00;;;;4968819;28;84068;-66
2023/07/12 04:01:09;;;;;;;2.03;1.60;;;26.10;62.10;26.30;99762.00;;;;4977253;28;83191;-65
2023/07/12 04:03:36;;;;;;;2.35;1.60;;;26.10;62.20;26.30;99774.00;;;;4970987;28;82834;-66
2023/07/12 04:06:03;;;;;;;1.60;1.50;;;26.10;62.20;26.30;99776.00;;;;4970023;28;83619;-66
2023/07/12 04:08:29;;;;;;;1.50;1.17;;;26.10;62.20;26.30;99777.00;;;;4974315;28;83286;-65
2023/07/12 04:10:56;;;;;;;3.33;1.65;;;26.10;62.30;26.30;99775.00;;;;4970369;28;83025;-65
2023/07/12 04:13:24;;;;;;;2.00;1.48;;;26.10;62.40;26.30;99782.00;;;;4975104;28;82610;-66
2023/07/12 04:15:56;;;;;;;1.10;1.10;;;26.10;62.60;26.30;99768.00;;;;4954568;28;84870;-68
2023/07/12 04:18:23;;;;;;;0.95;0.70;;;26.00;62.50;26.30;99773.00;;;;4968625;28;84424;-66
2023/07/12 04:20:50;;;;;;;3.35;1.20;;;26.00;62.50;26.30;99774.00;;;;4972160;28;95691;-68
2023/07/12 04:23:15;;;;;;;2.03;1.50;;;26.00;62.60;26.30;99767.00;;;;4971555;28;84514;-66
2023/07/12 04:25:42;;;;;;;3.97;1.40;;;26.00;62.70;26.30;99769.00;;;;4970573;28;94543;-66
2023/07/12 04:28:07;;;;;;;2.88;1.38;;;26.00;63.00;26.30;99780.00;;;;4969599;28;83785;-65
2023/07/12 04:30:33;;;;;;;1.40;1.30;;;26.00;63.40;26.30;99779.00;;;;4970391;28;96551;-67
2023/07/12 04:33:00;;;;;;;1.45;1.35;;;26.00;63.20;26.30;99793.00;;;;4968755;28;96150;-66
2023/07/12 04:35:26;;;;;;;2.45;1.10;;;26.00;63.20;26.30;99781.00;;;;4968811;28;104066;-66
2023/07/12 04:37:51;;;;;;;2.90;1.02;;;26.00;63.20;26.30;99793.00;;;;4968321;28;110960;-66
2023/07/12 04:40:18;;;;;;;1.58;0.65;;;26.00;63.00;26.30;99784.00;;;;4966478;28;106169;-66
2023/07/12 04:42:45;;;;;;;0.75;0.50;;;26.10;63.00;26.30;99797.00;;;;4964828;28;82787;-66
2023/07/12 04:45:13;;;;;;;1.38;0.98;;;26.10;63.20;26.30;99797.00;;;;4970345;28;84725;-66
2023/07/12 04:47:39;;;;;;;0.65;0.65;;;26.10;63.00;26.30;99802.00;;;;4969268;28;84264;-65
2023/07/12 04:50:08;;;;;;;0.55;0.50;;;26.00;63.00;26.30;99792.00;;;;4967087;28;83076;-66
2023/07/12 04:52:34;;;;;;;2.15;1.08;;;26.00;63.00;26.30;99784.00;;;;4967629;28;100693;-65
2023/07/12 04:55:03;;;;;;;1.90;0.98;;;26.00;63.00;26.30;99778.00;;;;4968936;28;83814;-67
2023/07/12 04:57:30;;;;;;;0.70;0.68;;;26.00;63.00;26.30;99791.00;;;;4968590;28;82820;-65
2023/07/12 04:59:56;;;;;;;0.93;0.70;;;26.00;63.00;26.30;99790.00;;;;4968273;28;84093;-67
2023/07/12 05:02:21;;;;;;;0.85;0.75;;;26.00;63.10;26.30;99787.00;;;;4969986;28;107561;-67
2023/07/12 05:04:47;;;;;;;0.82;0.73;;;26.00;63.10;26.30;99795.00;;;;4966003;28;113556;-66
2023/07/12 05:07:13;;;;;;;1.85;0.47;;;26.00;63.00;26.30;99790.00;;;;4967364;28;82721;-67
2023/07/12 05:09:39;;;;;;;0.50;0.50;;;26.00;63.10;26.20;99788.00;;;;4966514;28;109560;-66
2023/07/12 05:12:05;;;;;;;1.90;0.73;;;26.00;63.20;26.20;99787.00;;;;4969406;28;82566;-66
2023/07/12 05:14:31;;;;;;;0.57;0.57;;;26.00;63.30;26.20;99798.00;;;;4972803;28;83842;-66
2023/07/12 05:16:57;;;;;;;0.75;0.75;;;26.00;63.30;26.20;99805.00;;;;4976331;28;104859;-67
2023/07/12 05:19:22;;;;;;;2.08;0.52;;;25.90;63.30;26.20;99807.00;;;;4970234;28;110676;-66
2023/07/12 05:21:48;;;;;;;4.22;0.63;;;25.90;63.50;26.20;99809.00;;;;4966740;28;108357;-66
2023/07/12 05:24:14;;;;;;;1.33;0.80;;;25.90;63.50;26.20;99802.00;;;;4966970;28;101091;-67
2023/07/12 05:26:39;;;;;;;3.10;1.02;;;25.90;63.70;26.20;99810.00;;;;4964389;28;112499;-66
2023/07/12 05:29:05;;;;;;;1.52;0.80;;;25.90;63.70;26.20;99812.00;;;;4969540;28;111485;-66
2023/07/12 05:31:32;;;;;;;0.40;0.35;;;25.90;63.90;26.20;99826.00;;;;4976430;28;108485;-65
2023/07/12 05:33:57;;;;;;;1.55;0.75;;;25.90;64.00;26.10;99825.00;;;;4976563;28;83807;-66
2023/07/12 05:36:23;;;;;;;0.70;0.68;;;25.80;64.00;26.10;99832.00;;;;4972202;28;93832;-66
2023/07/12 05:38:49;;;;;;;0.60;0.60;;;25.90;64.20;26.10;99837.00;;;;4974552;28;108506;-66
2023/07/12 05:41:14;;;;;;;1.77;0.90;;;25.90;64.30;26.20;99841.00;;;;4973338;28;108388;-66
2023/07/12 05:43:41;;;;;;;1.00;0.73;;;25.90;64.40;26.20;99844.00;;;;4972260;28;101307;-65
2023/07/12 05:46:07;;;;;;;1.00;0.68;;;25.90;64.50;26.20;99849.00;;;;4974203;28;83654;-68
2023/07/12 05:48:32;;;;;;;1.63;0.77;;;25.90;64.50;26.20;99846.00;;;;4972964;28;82912;-66
2023/07/12 05:51:00;;;;;;;1.40;0.80;;;25.90;64.60;26.20;99851.00;;;;4969072;28;109149;-67
2023/07/12 05:53:26;;;;;;;1.17;1.08;;;25.90;64.70;26.20;99846.00;;;;4969091;28;83989;-66
2023/07/12 05:55:56;;;;;;;0.85;0.82;;;25.90;64.60;26.20;99835.00;;;;4972088;28;101254;-66
2023/07/12 05:58:23;;;;;;;1.20;0.85;;;26.00;64.70;26.30;99842.00;;;;4972052;28;82831;-68
2023/07/12 06:00:54;;;;;;;1.38;0.50;;;26.00;64.50;26.30;99843.00;;;;4969363;28;82663;-66
2023/07/12 06:03:20;;;;;;;1.10;0.73;;;26.10;64.40;26.40;99843.00;;;;4971887;28;101832;-67
2023/07/12 06:05:46;;;;;;;1.40;0.88;;;26.10;64.10;26.60;99831.00;;;;4971904;28;113312;-66
2023/07/12 06:08:12;;;;;;;0.50;0.45;;;26.20;63.70;26.70;99839.00;;;;4971247;28;82707;-66
2023/07/12 06:10:38;;;;;;;0.93;0.47;;;26.40;63.50;26.80;99848.00;;;;4971440;28;82224;-67
2023/07/12 06:13:03;;;;;;;1.17;0.95;;;26.40;63.00;26.90;99846.00;;;;4973062;28;82932;-66
2023/07/12 06:15:29;;;;;;;1.15;0.63;;;26.60;62.80;27.00;99848.00;;;;4971723;28;83023;-67
2023/07/12 06:17:55;;;;;;;0.75;0.75;;;26.70;62.40;27.00;99837.00;;;;4970035;28;110655;-68
2023/07/12 06:20:20;;;;;;;1.23;0.70;;;26.70;62.00;27.00;99850.00;;;;4975411;28;108954;-66
2023/07/12 06:22:46;;;;;;;0.82;0.40;;;26.70;61.80;27.10;99856.00;;;;4971603;28;113136;-66
2023/07/12 06:25:12;;;;;;;0.82;0.50;;;26.80;61.90;27.10;99858.00;;;;4974132;28;110457;-65
2023/07/12 06:27:37;;;;;;;1.20;0.40;;;26.80;61.80;27.20;99852.00;;;;4972761;28;110382;-66
2023/07/12 06:30:04;;;;;;;1.67;0.77;;;26.90;61.50;27.20;99854.00;;;;4972414;28;110055;-66
2023/07/12 06:32:29;;;;;;;0.55;0.30;;;27.00;61.40;27.40;99860.00;;;;4967450;28;108627;-67
2023/07/12 06:34:55;;;;;;;0.82;0.68;;;27.00;61.40;27.50;99861.00;;;;4968286;28;87840;-67
2023/07/12 06:37:20;;;;;;;1.85;0.57;;;27.20;61.30;27.70;99856.00;;;;4970917;28;108870;-67
2023/07/12 06:39:46;;;;;;;0.57;0.57;;;27.30;61.00;27.80;99863.00;;;;4969099;28;107148;-67
2023/07/12 06:42:12;;;;;;;0.68;0.52;;;27.50;60.20;27.90;99861.00;;;;4968254;28;117766;-66
2023/07/12 06:44:38;;;;;;;0.52;0.47;;;27.60;59.90;28.10;99868.00;;;;4970136;28;120072;-67
2023/07/12 06:47:04;;;;;;;0.80;0.68;;;27.70;59.80;28.20;99861.00;;;;4970299;28;103902;-66
2023/07/12 06:49:29;;;;;;;0.73;0.47;;;27.90;59.10;28.30;99871.00;;;;4971119;28;87842;-66
2023/07/12 06:51:57;;;;;;;1.20;0.77;;;28.00;58.60;28.40;99877.00;;;;4972607;28;87951;-66
2023/07/12 06:54:23;;;;;;;1.95;0.60;;;28.10;58.00;28.40;99884.00;;;;4975475;28;91751;-66
2023/07/12 06:56:48;;;;;;;0.77;0.60;;;28.10;57.80;28.40;99883.00;;;;4972924;28;87839;-67
2023/07/12 06:59:14;;;;;;;0.65;0.47;;;28.10;58.00;28.50;99882.00;;;;4968521;28;100573;-67
2023/07/12 07:01:40;;;;;;;1.08;0.50;;;28.20;58.10;28.50;99891.00;;;;4968597;28;116991;-66
2023/07/12 07:04:05;;;;;;;0.47;0.38;;;28.20;58.10;28.50;99891.00;;;;4971781;28;117234;-66
2023/07/12 07:06:31;;;;;;;0.70;0.60;;;28.20;58.00;28.60;99899.00;;;;4969161;28;109430;-65
2023/07/12 07:08:57;;;;;;;0.68;0.65;;;28.20;57.80;28.60;99892.00;;;;4971438;28;88100;-66
2023/07/12 07:11:23;;;;;;;0.68;0.55;;;28.30;57.70;28.70;99898.00;;;;4969008;28;87837;-67
2023/07/12 07:13:50;;;;;;;1.65;0.63;;;28.40;57.70;29.00;99902.00;;;;4971241;28;116954;-67
2023/07/12 07:16:17;;;;;;;1.10;0.52;;;28.60;57.40;29.10;99904.00;;;;4971259;28;88115;-67
2023/07/12 07:18:43;;;;;;;1.02;0.68;;;28.70;56.90;29.30;99909.00;;;;4969453;28;97492;-66
2023/07/12 07:21:09;;;;;;;2.10;0.73;;;28.90;56.70;29.50;99917.00;;;;4969334;28;89147;-67
2023/07/12 07:23:35;;;;;;;3.58;0.68;;;29.10;56.30;29.60;99920.00;;;;4968880;28;117700;-66
2023/07/12 07:26:07;;;;;;;0.55;0.55;;;29.30;55.80;29.50;99923.00;;;;4970806;28;110693;-66
2023/07/12 07:28:33;;;;;;;0.98;0.60;;;29.30;55.70;29.40;99921.00;;;;4966927;28;88317;-66
2023/07/12 07:31:00;;;;;;;1.08;0.98;;;29.20;55.60;29.40;99926.00;;;;4968337;28;89081;-66
2023/07/12 07:33:26;;;;;;;0.32;0.30;;;29.10;55.60;29.40;99925.00;;;;4969742;28;89685;-67
2023/07/12 07:35:52;;;;;;;0.95;0.73;;;29.10;55.60;29.40;99925.00;;;;4969687;28;87888;-66
2023/07/12 07:38:17;;;;;;;0.50;0.50;;;29.10;55.60;29.50;99918.00;;;;4968455;28;108549;-67
2023/07/12 07:40:43;;;;;;;0.93;0.52;;;29.20;55.60;29.50;99934.00;;;;4965433;28;118613;-67
2023/07/12 07:43:13;;;;;;;1.17;0.75;;;29.50;55.50;29.60;99938.00;;;;4970878;28;116308;-66
2023/07/12 07:45:40;;;;;;;1.65;0.90;;;29.20;55.20;29.60;99937.00;;;;4970103;28;87756;-66
2023/07/12 07:48:05;;;;;;;0.82;0.65;;;29.20;55.20;29.60;99939.00;;;;4966475;28;87215;-67
2023/07/12 07:50:31;;;;;;;0.60;0.40;;;29.30;55.40;29.70;99940.00;;;;4968276;28;88378;-67
2023/07/12 07:52:57;;;;;;;0.88;0.57;;;29.40;55.50;29.70;99933.00;;;;4964486;28;103035;-67
2023/07/12 07:55:22;;;;;;;0.82;0.40;;;29.40;55.00;29.50;99940.00;;;;4949398;28;110429;-66
2023/07/12 07:57:48;;;;;;;0.57;0.57;;;29.30;55.10;29.40;99942.00;;;;4952169;28;109864;-66
2023/07/12 08:00:15;;;;;;;0.40;0.40;;;29.10;55.30;29.30;99942.00;;;;4950128;28;118699;-66
2023/07/12 08:02:42;;;;;;;0.10;0.10;;;29.00;55.40;29.10;99944.00;;;;4949668;28;88092;-66
2023/07/12 08:05:10;;;;;;;1.73;0.68;;;28.90;55.60;29.10;99948.00;;;;4948380;28;87811;-66
2023/07/12 08:07:41;;;;;;;0.85;0.40;;;28.90;56.00;29.00;99953.00;;;;4950172;28;87982;-68
2023/07/12 08:10:14;;;;;;;0.50;0.40;;;28.80;56.30;28.90;99943.00;;;;4938557;28;87986;-67
2023/07/12 08:12:39;;;;;;;0.85;0.43;;;28.70;56.30;28.70;99934.00;;;;4956884;28;87159;-66
2023/07/12 08:15:06;;;;;;;0.75;0.47;;;28.50;56.40;28.60;99945.00;;;;4949268;28;109161;-65
2023/07/12 08:17:31;;;;;;;0.60;0.60;;;28.40;56.70;28.40;99945.00;;;;4946425;28;87832;-67
2023/07/12 08:19:57;;;;;;;0.75;0.55;;;28.20;57.00;28.30;99941.00;;;;4946629;28;113981;-65
2023/07/12 08:22:24;;;;;;;2.47;0.50;;;28.10;57.40;28.10;99945.00;;;;4947780;28;103417;-66
2023/07/12 08:24:50;;;;;;;0.88;0.40;;;27.90;57.60;28.10;99924.00;;;;4949659;28;87884;-65
2023/07/12 08:27:16;;;;;;;1.48;0.47;;;27.80;57.90;28.00;99934.00;;;;4951584;28;87947;-65
2023/07/12 08:29:43;;;;;;;0.77;0.60;;;27.70;58.20;27.90;99932.00;;;;4950120;28;87930;-66
2023/07/12 08:32:09;;;;;;;0.85;0.50;;;27.70;58.30;27.90;99928.00;;;;4948561;28;88115;-67
2023/07/12 08:34:35;;;;;;;0.35;0.35;;;27.60;58.50;27.90;99932.00;;;;4947780;28;101888;-66
2023/07/12 08:37:01;;;;;;;2.60;0.57;;;27.60;58.70;27.90;99937.00;;;;4950878;28;87247;-67
2023/07/12 08:39:27;;;;;;;0.52;0.43;;;27.60;58.90;27.90;99939.00;;;;4953096;28;89017;-66
2023/07/12 08:41:53;;;;;;;0.85;0.75;;;27.60;59.00;27.90;99940.00;;;;4947394;28;88649;-67
2023/07/12 08:44:19;;;;;;;1.73;0.90;;;27.60;59.50;28.00;99942.00;;;;4952684;28;88946;-67
2023/07/12 08:46:54;;;;;;;0.57;0.45;;;27.60;58.90;28.10;99946.00;;;;4950591;28;91378;-66
2023/07/12 08:49:23;;;;;;;1.77;0.40;;;27.70;59.00;28.20;99948.00;;;;4952024;28;88102;-68
2023/07/12 08:51:50;;;;;;;1.48;1.10;;;27.90;59.00;28.40;99953.00;;;;4954250;28;87846;-67
2023/07/12 08:54:34;;;;;;;1.25;0.50;;;28.00;58.70;28.40;99948.00;;;;4962550;28;88055;-67
2023/07/12 08:57:25;;;;;;;2.45;0.93;;;28.10;58.70;28.50;99964.00;;;;4972144;28;87968;-67
2023/07/12 09:00:19;;;;;;;0.82;0.80;;;28.20;58.60;28.60;99949.00;;;;4969524;28;88983;-66
2023/07/12 09:02:45;;;;;;;1.80;1.02;;;28.20;58.70;28.60;99941.00;;;;4966216;28;110356;-66
2023/07/12 09:05:21;;;;;;;1.25;0.77;;;28.30;58.70;28.70;99951.00;;;;4968081;28;103605;-65
2023/07/12 09:07:55;;;;;;;2.08;1.35;;;28.40;58.80;28.80;99957.00;;;;4971194;28;87829;-68
2023/07/12 09:11:14;;;;;;;1.73;0.98;;;28.40;58.70;28.80;99974.00;;;;4964858;28;88640;-66
2023/07/12 09:13:40;;;;;;;7.45;0.70;;;28.70;58.80;28.80;99976.00;;;;4949705;28;87997;-67
2023/07/12 09:16:33;;;;;;;3.97;1.48;;;28.50;58.80;28.80;99971.00;;;;4968332;28;103437;-66
2023/07/12 09:19:12;;;;;;;1.95;1.00;;;28.50;58.80;28.70;99987.00;;;;4964464;28;88246;-64
2023/07/12 09:21:38;;;;;;;1.45;0.80;;;28.40;58.60;28.60;99990.00;;;;4968964;28;100336;-66
2023/07/12 09:24:13;;;;;;;0.88;0.88;;;28.30;58.80;28.50;99990.00;;;;4968919;28;88924;-65
2023/07/12 09:26:39;;;;;;;1.05;0.73;;;28.20;59.00;28.40;99995.00;;;;4964407;28;102705;-68
2023/07/12 09:29:19;;;;;;;1.33;0.98;;;28.20;59.30;28.40;99989.00;;;;4968775;28;87217;-65
2023/07/12 09:31:45;;;;;;;1.70;0.90;;;28.10;59.50;28.40;99990.00;;;;4963334;28;87919;-66
2023/07/12 09:34:31;;;;;;;1.00;1.00;;;28.10;59.60;28.40;99997.00;;;;4968436;28;87871;-66
2023/07/12 09:36:58;;;;;;;1.42;0.82;;;28.10;59.80;28.50;100001.00;;;;4971419;28;102646;-67
2023/07/12 09:39:25;;;;;;;1.27;1.00;;;28.10;60.10;28.70;99987.00;;;;4964754;28;88783;-66
2023/07/12 09:42:00;;;;;;;1.00;0.90;;;28.30;60.60;28.90;99991.00;;;;4967469;28;89062;-66
2023/07/12 09:44:27;;;;;;;1.20;0.93;;;28.40;60.20;29.10;99991.00;;;;4972563;28;88043;-68
2023/07/12 09:47:12;;;;;;;1.85;1.15;;;28.60;60.10;29.20;99990.00;;;;4968312;28;87892;-67
2023/07/12 09:49:51;;;;;;;1.00;0.90;;;28.80;59.70;29.40;99990.00;;;;4972202;28;97647;-66
2023/07/12 09:52:27;;;;;;;1.30;0.93;;;28.90;59.50;29.70;99990.00;;;;4966226;28;94021;-67
2023/07/12 09:55:03;;;;;;;4.25;1.35;;;29.20;59.30;30.00;99996.00;;;;4963432;28;107878;-68
2023/07/12 09:58:02;;;;;;;2.45;1.27;;;29.50;58.90;30.30;99997.00;;;;4973489;28;87814;-67
2023/07/12 10:00:41;;;;;;;1.42;1.00;;;29.80;58.50;30.50;100006.00;;;;4970440;28;87962;-69
2023/07/12 10:03:29;;;;;;;3.22;1.52;;;30.00;57.80;30.60;100008.00;;;;4946081;28;90269;-68
2023/07/12 10:06:15;;;;;;;3.03;1.15;;;30.20;57.40;30.70;100008.00;;;;4964510;28;87865;-68
2023/07/12 10:08:55;;;;;;;3.38;1.85;;;30.30;57.30;30.90;100008.00;;;;4970296;28;87751;-69
2023/07/12 10:11:34;;;;;;;1.58;1.00;;;30.40;57.30;31.00;100021.00;;;;4969824;28;87973;-68
2023/07/12 10:14:06;;;;;;;2.55;1.40;;;30.60;57.00;30.90;100015.00;;;;4965487;28;88610;-69
2023/07/12 10:16:39;;;;;;;1.00;0.90;;;30.60;56.60;30.80;100014.00;;;;4973576;28;88285;-69
2023/07/12 10:19:26;;;;;;;6.35;1.50;;;30.50;56.40;30.70;100016.00;;;;4972202;28;88021;-69
2023/07/12 10:21:57;;;;;;;1.25;1.13;;;30.50;56.30;30.60;100020.00;;;;4975133;28;87029;-68
2023/07/12 10:24:34;;;;;;;6.10;1.60;;;30.30;56.50;30.50;100012.00;;;;4976068;28;88944;-69
2023/07/12 10:27:04;;;;;;;6.03;1.40;;;30.20;56.70;30.60;100002.00;;;;4970304;28;87754;-68
2023/07/12 10:29:54;;;;;;;2.20;1.58;;;30.20;56.60;30.90;99989.00;;;;4972142;28;88633;-67
2023/07/12 10:32:35;;;;;;;2.83;1.55;;;30.40;56.80;31.20;99987.00;;;;4966706;28;88069;-68
2023/07/12 10:35:16;;;;;;;1.52;1.25;;;30.70;56.20;31.60;99985.00;;;;4968271;28;87829;-68
2023/07/12 10:38:05;;;;;;;1.65;1.40;;;31.00;55.90;32.00;99980.00;;;;4967645;28;87843;-68
2023/07/12 10:40:38;;;;;;;1.77;1.33;;;31.30;55.60;32.30;99973.00;;;;4948895;28;105796;-68
2023/07/12 10:43:13;;;;;;;1.20;1.00;;;31.70;54.60;32.60;99976.00;;;;4971061;28;88034;-67
2023/07/12 10:45:39;;;;;;;1.85;1.40;;;32.00;54.20;32.80;99982.00;;;;4973975;28;110490;-67
2023/07/12 10:48:07;;;;;;;4.07;1.48;;;32.10;53.90;32.90;99978.00;;;;4965934;28;116803;-68
2023/07/12 10:50:49;;;;;;;1.48;1.17;;;32.30;52.80;33.00;99976.00;;;;4968763;28;99761;-68
2023/07/12 10:53:24;;;;;;;1.83;1.45;;;32.40;52.80;33.20;99988.00;;;;4970042;28;87859;-70
2023/07/12 10:56:08;;;;;;;1.55;1.25;;;32.60;52.90;33.40;99989.00;;;;4968066;28;88884;-69
2023/07/12 10:58:48;;;;;;;2.45;1.70;;;32.80;52.50;33.60;99988.00;;;;4970475;28;117695;-69
2023/07/12 11:01:43;;;;;;;2.78;2.08;;;33.00;52.40;33.80;99981.00;;;;4975864;28;87918;-68